Time;durP1;ratioP1;P1;durP2;ratioP2;P2;SDS_P1;SDS_P2;PMS_P1;PMS_P2;Temp;Humidity;BMP_temperature;BMP_pressure;BME280_temperature;BME280_humidity;BME280_pressure;Samples;Min_cycle;Max_cycle;Signal;HPM_P1;HPM_P2
2023/03/17 00:02:01;;;;;;;;;;;;;;;;;;5093731;28;19920;-78
2023/03/17 00:04:26;;;;;;;;;;;;;;;;;;5097446;28;19919;-77
2023/03/17 00:06:51;;;;;;;;;;;;;;;;;;5091152;28;19919;-78
2023/03/17 00:09:16;;;;;;;;;;;;;;;;;;5127993;27;19919;-77
2023/03/17 00:11:42;;;;;;;;;;;;;;;;;;5092509;28;19969;-78
2023/03/17 00:14:07;;;;;;;;;;;;;;;;;;5097257;28;19907;-77
2023/03/17 00:16:32;;;;;;;;;;;;;;;;;;5090940;28;20346;-76
2023/03/17 00:18:57;;;;;;;;;;;;;;;;;;5098212;28;19911;-76
2023/03/17 00:21:22;;;;;;;;;;;;;;;;;;5089148;28;19935;-77
2023/03/17 00:23:48;;;;;;;;;;;;;;;;;;5088164;28;19912;-75
2023/03/17 00:26:14;;;;;;;;;;;;;;;;;;5097627;28;19912;-77
2023/03/17 00:28:39;;;;;;;;;;;;;;;;;;5099266;28;19926;-78
2023/03/17 00:31:04;;;;;;;;;;;;;;;;;;5088246;28;19914;-77
2023/03/17 00:33:29;;;;;;;;;;;;;;;;;;5097953;28;19908;-78
2023/03/17 00:35:54;;;;;;;;;;;;;;;;;;5091571;28;19944;-78
2023/03/17 00:38:20;;;;;;;;;;;;;;;;;;5095482;28;19914;-78
2023/03/17 00:40:45;;;;;;;;;;;;;;;;;;5097987;28;19937;-78
2023/03/17 00:43:10;;;;;;;;;;;;;;;;;;5092789;28;19930;-78
2023/03/17 00:45:35;;;;;;;;;;;;;;;;;;5093921;28;19915;-77
2023/03/17 00:48:02;;;;;;;;;;;;;;;;;;5091226;28;19999;-78
2023/03/17 00:50:27;;;;;;;;;;;;;;;;;;5086789;28;19908;-78
2023/03/17 00:52:52;;;;;;;;;;;;;;;;;;5091256;28;19914;-77
2023/03/17 00:55:18;;;;;;;;;;;;;;;;;;5088889;28;19911;-76
2023/03/17 00:57:43;;;;;;;;;;;;;;;;;;5087360;28;19916;-77
2023/03/17 01:00:08;;;;;;;;;;;;;;;;;;5090360;28;19912;-78
2023/03/17 01:02:34;;;;;;;;;;;;;;;;;;5094313;28;19949;-78
2023/03/17 01:04:59;;;;;;;;;;;;;;;;;;5095892;28;19926;-78
2023/03/17 01:07:24;;;;;;;;;;;;;;;;;;5088380;28;19920;-78
2023/03/17 01:09:49;;;;;;;;;;;;;;;;;;5095982;28;20003;-77
2023/03/17 01:12:15;;;;;;;;;;;;;;;;;;5088772;28;19918;-78
2023/03/17 01:14:40;;;;;;;;;;;;;;;;;;5097365;28;19954;-78
2023/03/17 01:17:06;;;;;;;;;;;;;;;;;;5089084;28;19919;-76
2023/03/17 01:19:31;;;;;;;;;;;;;;;;;;5093237;28;19916;-77
2023/03/17 01:21:56;;;;;;;;;;;;;;;;;;5086542;28;19919;-77
2023/03/17 01:24:21;;;;;;;;;;;;;;;;;;5096270;28;20494;-77
2023/03/17 01:26:47;;;;;;;;;;;;;;;;;;5095528;28;20357;-77
2023/03/17 01:29:12;;;;;;;;;;;;;;;;;;5096804;28;20461;-77
2023/03/17 01:31:38;;;;;;;;;;;;;;;;;;5098704;28;19904;-77
2023/03/17 01:34:03;;;;;;;;;;;;;;;;;;5097765;28;19916;-78
2023/03/17 01:36:28;;;;;;;;;;;;;;;;;;5092342;28;19904;-76
2023/03/17 01:38:53;;;;;;;;;;;;;;;;;;5092460;28;19912;-78
2023/03/17 01:41:19;;;;;;;;;;;;;;;;;;5094804;28;19923;-77
2023/03/17 01:43:44;;;;;;;;;;;;;;;;;;5094866;27;19911;-78
2023/03/17 01:46:11;;;;;;;;;;;;;;;;;;5094465;28;20381;-77
2023/03/17 01:48:36;;;;;;;;;;;;;;;;;;5093135;28;19907;-78
2023/03/17 01:51:03;;;;;;;;;;;;;;;;;;5086438;28;19968;-77
2023/03/17 01:53:28;;;;;;;;;;;;;;;;;;5091249;28;19910;-78
2023/03/17 01:55:53;;;;;;;;;;;;;;;;;;5086564;28;19912;-78
2023/03/17 01:58:18;;;;;;;;;;;;;;;;;;5090655;28;19911;-78
2023/03/17 02:00:45;;;;;;;;;;;;;;;;;;5084600;28;20358;-78
2023/03/17 02:03:10;;;;;;;;;;;;;;;;;;5084705;28;19912;-78
2023/03/17 02:05:35;;;;;;;;;;;;;;;;;;5087435;28;19922;-77
2023/03/17 02:08:00;;;;;;;;;;;;;;;;;;5085240;28;20006;-78
2023/03/17 02:10:26;;;;;;;;;;;;;;;;;;5097882;28;19911;-78
2023/03/17 02:12:51;;;;;;;;;;;;;;;;;;5086817;28;19986;-78
2023/03/17 02:15:16;;;;;;;;;;;;;;;;;;5098597;28;20246;-78
2023/03/17 02:17:41;;;;;;;;;;;;;;;;;;5093959;28;19916;-78
2023/03/17 02:20:07;;;;;;;;;;;;;;;;;;5087139;28;19908;-77
2023/03/17 02:22:32;;;;;;;;;;;;;;;;;;5088345;28;19920;-78
2023/03/17 02:24:57;;;;;;;;;;;;;;;;;;5091163;28;19915;-77
2023/03/17 02:27:22;;;;;;;;;;;;;;;;;;5093720;28;19922;-78
2023/03/17 02:29:48;;;;;;;;;;;;;;;;;;5092298;27;19908;-77
2023/03/17 02:32:13;;;;;;;;;;;;;;;;;;5091887;28;19911;-76
2023/03/17 02:34:38;;;;;;;;;;;;;;;;;;5088413;28;19950;-77
2023/03/17 02:37:03;;;;;;;;;;;;;;;;;;5086860;28;20241;-78
2023/03/17 02:39:28;;;;;;;;;;;;;;;;;;5089516;28;19941;-79
2023/03/17 02:41:53;;;;;;;;;;;;;;;;;;5096817;28;19971;-79
2023/03/17 02:44:19;;;;;;;;;;;;;;;;;;5092655;28;19912;-79
2023/03/17 02:46:44;;;;;;;;;;;;;;;;;;5086080;28;20318;-78
2023/03/17 02:49:09;;;;;;;;;;;;;;;;;;5091686;28;20383;-78
2023/03/17 02:51:35;;;;;;;;;;;;;;;;;;5095632;28;19923;-78
2023/03/17 02:54:00;;;;;;;;;;;;;;;;;;5091457;28;19911;-78
2023/03/17 02:56:25;;;;;;;;;;;;;;;;;;5093517;28;20015;-77
2023/03/17 02:58:51;;;;;;;;;;;;;;;;;;5086947;28;19911;-77
2023/03/17 03:01:17;;;;;;;;;;;;;;;;;;5096615;28;21055;-77
2023/03/17 03:03:42;;;;;;;;;;;;;;;;;;5091707;28;20046;-78
2023/03/17 03:06:07;;;;;;;;;;;;;;;;;;5085751;28;19927;-77
2023/03/17 03:08:32;;;;;;;;;;;;;;;;;;5096885;28;19958;-79
2023/03/17 03:10:59;;;;;;;;;;;;;;;;;;5099608;28;20041;-78
2023/03/17 03:13:24;;;;;;;;;;;;;;;;;;5098905;28;19964;-78
2023/03/17 03:15:49;;;;;;;;;;;;;;;;;;5092111;28;19916;-75
2023/03/17 03:18:14;;;;;;;;;;;;;;;;;;5099060;28;20330;-76
2023/03/17 03:20:40;;;;;;;;;;;;;;;;;;5100893;28;19918;-77
2023/03/17 03:23:05;;;;;;;;;;;;;;;;;;5098456;28;19919;-76
2023/03/17 03:25:31;;;;;;;;;;;;;;;;;;5100389;28;19916;-77
2023/03/17 03:27:56;;;;;;;;;;;;;;;;;;5099783;28;19922;-77
2023/03/17 03:30:21;;;;;;;;;;;;;;;;;;5098937;28;19912;-77
2023/03/17 03:32:46;;;;;;;;;;;;;;;;;;5099082;28;20053;-77
2023/03/17 03:35:11;;;;;;;;;;;;;;;;;;5089155;28;20400;-77
2023/03/17 03:37:36;;;;;;;;;;;;;;;;;;5090983;28;20352;-77
2023/03/17 03:40:02;;;;;;;;;;;;;;;;;;5090203;28;19912;-79
2023/03/17 03:42:27;;;;;;;;;;;;;;;;;;5100695;28;19959;-79
2023/03/17 03:44:52;;;;;;;;;;;;;;;;;;5099905;28;20020;-79
2023/03/17 03:47:17;;;;;;;;;;;;;;;;;;5099883;28;20471;-79
2023/03/17 03:49:42;;;;;;;;;;;;;;;;;;5088430;28;19911;-78
2023/03/17 03:52:08;;;;;;;;;;;;;;;;;;5085396;28;19969;-77
2023/03/17 03:54:33;;;;;;;;;;;;;;;;;;5085252;28;19919;-77
2023/03/17 03:56:58;;;;;;;;;;;;;;;;;;5086597;28;19912;-77
2023/03/17 03:59:23;;;;;;;;;;;;;;;;;;5085001;28;19920;-78
2023/03/17 04:01:48;;;;;;;;;;;;;;;;;;5087216;28;20346;-78
2023/03/17 04:04:13;;;;;;;;;;;;;;;;;;5086881;28;19922;-78
2023/03/17 04:06:38;;;;;;;;;;;;;;;;;;5096598;28;20049;-79
2023/03/17 04:09:04;;;;;;;;;;;;;;;;;;5098806;28;20288;-77
2023/03/17 04:11:29;;;;;;;;;;;;;;;;;;5090542;28;19934;-78
2023/03/17 04:13:54;;;;;;;;;;;;;;;;;;5098793;28;19912;-79
2023/03/17 04:16:20;;;;;;;;;;;;;;;;;;5096774;28;19912;-78
2023/03/17 04:18:45;;;;;;;;;;;;;;;;;;5094230;28;20610;-76
2023/03/17 04:21:11;;;;;;;;;;;;;;;;;;5095191;28;19964;-78
2023/03/17 04:23:36;;;;;;;;;;;;;;;;;;5089404;28;19947;-78
2023/03/17 04:26:02;;;;;;;;;;;;;;;;;;5092650;28;19986;-76
2023/03/17 04:28:28;;;;;;;;;;;;;;;;;;5094313;28;19912;-78
2023/03/17 04:30:53;;;;;;;;;;;;;;;;;;5084098;28;19962;-77
2023/03/17 04:33:19;;;;;;;;;;;;;;;;;;5083990;28;20295;-77
2023/03/17 04:35:44;;;;;;;;;;;;;;;;;;5086380;28;20370;-77
2023/03/17 04:38:09;;;;;;;;;;;;;;;;;;5085180;28;20004;-77
2023/03/17 04:40:34;;;;;;;;;;;;;;;;;;5085647;28;20069;-77
2023/03/17 04:43:00;;;;;;;;;;;;;;;;;;5083688;28;19919;-77
2023/03/17 04:45:25;;;;;;;;;;;;;;;;;;5084947;27;20223;-77
2023/03/17 04:47:50;;;;;;;;;;;;;;;;;;5088200;28;20706;-77
2023/03/17 04:50:16;;;;;;;;;;;;;;;;;;5096429;28;19912;-77
2023/03/17 04:52:41;;;;;;;;;;;;;;;;;;5091008;28;19919;-77
2023/03/17 04:55:10;;;;;;;;;;;;;;;;;;5091289;28;19911;-76
2023/03/17 04:57:36;;;;;;;;;;;;;;;;;;5090070;28;20070;-76
2023/03/17 05:00:01;;;;;;;;;;;;;;;;;;5094627;28;20018;-77
2023/03/17 05:02:27;;;;;;;;;;;;;;;;;;5093198;28;19962;-76
2023/03/17 05:04:52;;;;;;;;;;;;;;;;;;5093576;28;19954;-76
2023/03/17 05:07:17;;;;;;;;;;;;;;;;;;5086521;28;19919;-75
2023/03/17 05:09:42;;;;;;;;;;;;;;;;;;5082138;28;20366;-75
2023/03/17 05:12:08;;;;;;;;;;;;;;;;;;5092638;28;19912;-75
2023/03/17 05:14:34;;;;;;;;;;;;;;;;;;5094459;28;19912;-75
2023/03/17 05:16:59;;;;;;;;;;;;;;;;;;5095712;28;19919;-77
2023/03/17 05:19:25;;;;;;;;;;;;;;;;;;5090929;28;19973;-76
2023/03/17 05:21:51;;;;;;;;;;;;;;;;;;5095736;28;19941;-78
2023/03/17 05:24:16;;;;;;;;;;;;;;;;;;5097297;28;19941;-77
2023/03/17 05:26:41;;;;;;;;;;;;;;;;;;5089788;28;19938;-76
2023/03/17 05:29:07;;;;;;;;;;;;;;;;;;5085810;28;20404;-77
2023/03/17 05:31:32;;;;;;;;;;;;;;;;;;5092351;28;19916;-78
2023/03/17 05:33:58;;;;;;;;;;;;;;;;;;5097750;28;20743;-78
2023/03/17 05:36:23;;;;;;;;;;;;;;;;;;5097269;28;19961;-78
2023/03/17 05:38:49;;;;;;;;;;;;;;;;;;5094469;28;20231;-78
2023/03/17 05:41:14;;;;;;;;;;;;;;;;;;5090223;28;19920;-78
2023/03/17 05:43:40;;;;;;;;;;;;;;;;;;5086309;28;19912;-77
2023/03/17 05:46:05;;;;;;;;;;;;;;;;;;5081302;28;20008;-77
2023/03/17 05:48:30;;;;;;;;;;;;;;;;;;5093448;28;20006;-78
2023/03/17 05:50:55;;;;;;;;;;;;;;;;;;5094205;28;19958;-78
2023/03/17 05:53:21;;;;;;;;;;;;;;;;;;5096292;28;19941;-78
2023/03/17 05:55:46;;;;;;;;;;;;;;;;;;5094944;28;19912;-80
2023/03/17 05:58:12;;;;;;;;;;;;;;;;;;5095387;28;19908;-78
2023/03/17 06:00:37;;;;;;;;;;;;;;;;;;5093940;28;19916;-78
2023/03/17 06:03:02;;;;;;;;;;;;;;;;;;5085965;28;19929;-77
2023/03/17 06:05:28;;;;;;;;;;;;;;;;;;5085543;28;20334;-77
2023/03/17 06:07:53;;;;;;;;;;;;;;;;;;5088492;28;19919;-78
2023/03/17 06:10:18;;;;;;;;;;;;;;;;;;5088073;28;19916;-76
2023/03/17 06:12:43;;;;;;;;;;;;;;;;;;5095509;28;20296;-75
2023/03/17 06:15:08;;;;;;;;;;;;;;;;;;5096850;28;19912;-77
2023/03/17 06:17:34;;;;;;;;;;;;;;;;;;5095426;28;20309;-77
2023/03/17 06:19:59;;;;;;;;;;;;;;;;;;5094777;28;19911;-78
2023/03/17 06:22:24;;;;;;;;;;;;;;;;;;5092308;28;19919;-78
2023/03/17 06:24:51;;;;;;;;;;;;;;;;;;5082060;28;20465;-78
2023/03/17 06:27:16;;;;;;;;;;;;;;;;;;5081311;28;19916;-79
2023/03/17 06:29:42;;;;;;;;;;;;;;;;;;5081825;28;19912;-77
2023/03/17 06:32:08;;;;;;;;;;;;;;;;;;5082538;28;19918;-77
2023/03/17 06:34:33;;;;;;;;;;;;;;;;;;5082875;28;19916;-78
2023/03/17 06:36:58;;;;;;;;;;;;;;;;;;5083821;28;19912;-73
2023/03/17 06:39:23;;;;;;;;;;;;;;;;;;5082175;28;19916;-74
2023/03/17 06:41:49;;;;;;;;;;;;;;;;;;5081546;28;19926;-73
2023/03/17 06:44:14;;;;;;;;;;;;;;;;;;5081262;28;19916;-77
2023/03/17 06:46:40;;;;;;;;;;;;;;;;;;5081688;28;19912;-77
2023/03/17 06:49:06;;;;;;;;;;;;;;;;;;5083557;28;19911;-76
2023/03/17 06:51:33;;;;;;;;;;;;;;;;;;5093779;28;19966;-76
2023/03/17 06:53:58;;;;;;;;;;;;;;;;;;5084126;28;20334;-75
2023/03/17 06:56:23;;;;;;;;;;;;;;;;;;5086005;28;19937;-76
2023/03/17 06:58:48;;;;;;;;;;;;;;;;;;5094385;28;19919;-75
2023/03/17 07:01:13;;;;;;;;;;;;;;;;;;5091010;28;19977;-75
2023/03/17 07:03:39;;;;;;;;;;;;;;;;;;5092035;28;19965;-75
2023/03/17 07:06:04;;;;;;;;;;;;;;;;;;5092583;28;19920;-75
2023/03/17 07:08:29;;;;;;;;;;;;;;;;;;5094708;28;19919;-76
2023/03/17 07:10:56;;;;;;;;;;;;;;;;;;5097206;28;19919;-77
2023/03/17 07:13:21;;;;;;;;;;;;;;;;;;5093140;28;19911;-76
2023/03/17 07:15:47;;;;;;;;;;;;;;;;;;5093941;28;19943;-76
2023/03/17 07:18:12;;;;;;;;;;;;;;;;;;5096549;28;20002;-76
2023/03/17 07:20:37;;;;;;;;;;;;;;;;;;5090428;28;19973;-75
2023/03/17 07:23:02;;;;;;;;;;;;;;;;;;5097196;28;19971;-76
2023/03/17 07:25:27;;;;;;;;;;;;;;;;;;5095966;28;19911;-76
2023/03/17 07:27:52;;;;;;;;;;;;;;;;;;5096027;28;19919;-75
2023/03/17 07:30:18;;;;;;;;;;;;;;;;;;5094179;28;20021;-76
2023/03/17 07:32:43;;;;;;;;;;;;;;;;;;5095766;28;19912;-76
2023/03/17 07:35:08;;;;;;;;;;;;;;;;;;5093255;28;20246;-76
2023/03/17 07:37:33;;;;;;;;;;;;;;;;;;5097114;28;19945;-76
2023/03/17 07:39:58;;;;;;;;;;;;;;;;;;5090743;28;20286;-76
2023/03/17 07:42:23;;;;;;;;;;;;;;;;;;5094920;28;19915;-76
2023/03/17 07:44:49;;;;;;;;;;;;;;;;;;5093503;28;19948;-76
2023/03/17 07:47:14;;;;;;;;;;;;;;;;;;5095858;28;19964;-75
2023/03/17 07:49:40;;;;;;;;;;;;;;;;;;5097357;28;19983;-76
2023/03/17 07:52:05;;;;;;;;;;;;;;;;;;5093913;28;19951;-76
2023/03/17 07:54:31;;;;;;;;;;;;;;;;;;5092941;28;19912;-76
2023/03/17 07:56:56;;;;;;;;;;;;;;;;;;5099670;28;19915;-76
2023/03/17 07:59:21;;;;;;;;;;;;;;;;;;5093447;28;20238;-76
2023/03/17 08:01:46;;;;;;;;;;;;;;;;;;5098905;28;19927;-76
2023/03/17 08:04:12;;;;;;;;;;;;;;;;;;5097285;28;20327;-75
2023/03/17 08:06:37;;;;;;;;;;;;;;;;;;5097864;28;19920;-75
2023/03/17 08:09:02;;;;;;;;;;;;;;;;;;5096908;28;19912;-77
2023/03/17 08:11:27;;;;;;;;;;;;;;;;;;5095086;28;19915;-76
2023/03/17 08:13:53;;;;;;;;;;;;;;;;;;5100213;28;20396;-75
2023/03/17 08:16:18;;;;;;;;;;;;;;;;;;5099136;28;19908;-74
2023/03/17 08:18:44;;;;;;;;;;;;;;;;;;5128704;27;20049;-75
2023/03/17 08:21:09;;;;;;;;;;;;;;;;;;5098669;28;19918;-75
2023/03/17 08:23:35;;;;;;;;;;;;;;;;;;5096252;28;20009;-74
2023/03/17 08:26:00;;;;;;;;;;;;;;;;;;5095839;28;19915;-77
2023/03/17 08:28:25;;;;;;;;;;;;;;;;;;5098421;28;19930;-76
2023/03/17 08:30:51;;;;;;;;;;;;;;;;;;5100416;28;19925;-77
2023/03/17 08:33:16;;;;;;;;;;;;;;;;;;5099959;28;19963;-75
2023/03/17 08:35:42;;;;;;;;;;;;;;;;;;5098628;28;20875;-75
2023/03/17 08:38:07;;;;;;;;;;;;;;;;;;5097817;28;19973;-75
2023/03/17 08:40:32;;;;;;;;;;;;;;;;;;5097767;28;19919;-78
2023/03/17 08:42:58;;;;;;;;;;;;;;;;;;5098862;28;19967;-75
2023/03/17 08:45:23;;;;;;;;;;;;;;;;;;5099227;28;20015;-75
2023/03/17 08:47:48;;;;;;;;;;;;;;;;;;5096034;28;20235;-75
2023/03/17 08:50:13;;;;;;;;;;;;;;;;;;5096043;28;19912;-76
2023/03/17 08:52:39;;;;;;;;;;;;;;;;;;5098470;28;20228;-77
2023/03/17 08:55:07;;;;;;;;;;;;;;;;;;5096413;28;19908;-76
2023/03/17 08:57:33;;;;;;;;;;;;;;;;;;5096033;28;21010;-75
2023/03/17 08:59:58;;;;;;;;;;;;;;;;;;5097388;28;19908;-75
2023/03/17 09:02:23;;;;;;;;;;;;;;;;;;5094445;28;20015;-75
2023/03/17 09:04:48;;;;;;;;;;;;;;;;;;5094582;28;19941;-76
2023/03/17 09:07:14;;;;;;;;;;;;;;;;;;5096729;28;20207;-76
2023/03/17 09:09:39;;;;;;;;;;;;;;;;;;5092862;28;19908;-76
2023/03/17 09:12:05;;;;;;;;;;;;;;;;;;5096547;28;20216;-76
2023/03/17 09:14:30;;;;;;;;;;;;;;;;;;5093784;28;19912;-78
2023/03/17 09:16:55;;;;;;;;;;;;;;;;;;5094563;28;19914;-76
2023/03/17 09:19:20;;;;;;;;;;;;;;;;;;5096337;28;19954;-75
2023/03/17 09:21:46;;;;;;;;;;;;;;;;;;5095801;28;20395;-75
2023/03/17 09:24:11;;;;;;;;;;;;;;;;;;5098177;28;19918;-76
2023/03/17 09:26:36;;;;;;;;;;;;;;;;;;5096672;28;19916;-75
2023/03/17 09:29:02;;;;;;;;;;;;;;;;;;5095444;28;19915;-76
2023/03/17 09:31:27;;;;;;;;;;;;;;;;;;5092545;28;20029;-76
2023/03/17 09:33:53;;;;;;;;;;;;;;;;;;5098108;28;19908;-76
2023/03/17 09:36:19;;;;;;;;;;;;;;;;;;5096161;28;20327;-76
2023/03/17 09:38:44;;;;;;;;;;;;;;;;;;5096899;28;19964;-75
2023/03/17 09:41:10;;;;;;;;;;;;;;;;;;5127875;27;20242;-74
2023/03/17 09:43:35;;;;;;;;;;;;;;;;;;5094264;28;19962;-75
2023/03/17 09:46:01;;;;;;;;;;;;;;;;;;5096209;28;19931;-77
2023/03/17 09:48:26;;;;;;;;;;;;;;;;;;5085896;28;20007;-76
2023/03/17 09:50:51;;;;;;;;;;;;;;;;;;5091353;28;20329;-76
2023/03/17 09:53:16;;;;;;;;;;;;;;;;;;5099204;28;19912;-77
2023/03/17 09:55:41;;;;;;;;;;;;;;;;;;5096723;28;20003;-77
2023/03/17 09:58:07;;;;;;;;;;;;;;;;;;5094163;28;19989;-78
2023/03/17 10:00:32;;;;;;;;;;;;;;;;;;5085710;28;19912;-78
2023/03/17 10:02:57;;;;;;;;;;;;;;;;;;5093557;28;19920;-77
2023/03/17 10:05:22;;;;;;;;;;;;;;;;;;5097171;28;20391;-77
2023/03/17 10:07:48;;;;;;;;;;;;;;;;;;5096519;28;19924;-76
2023/03/17 10:10:13;;;;;;;;;;;;;;;;;;5086193;28;21760;-76
2023/03/17 10:12:38;;;;;;;;;;;;;;;;;;5082756;28;19912;-77
2023/03/17 10:15:05;;;;;;;;;;;;;;;;;;5083430;28;19912;-78
2023/03/17 10:17:31;;;;;;;;;;;;;;;;;;5082561;28;19938;-76
2023/03/17 10:19:57;;;;;;;;;;;;;;;;;;5079257;28;19916;-78
2023/03/17 10:22:22;;;;;;;;;;;;;;;;;;5082517;28;19919;-77
2023/03/17 10:24:47;;;;;;;;;;;;;;;;;;5082320;28;19955;-75
2023/03/17 10:27:12;;;;;;;;;;;;;;;;;;5085729;28;19907;-77
2023/03/17 10:29:39;;;;;;;;;;;;;;;;;;5084436;28;20028;-76
2023/03/17 10:32:04;;;;;;;;;;;;;;;;;;5083708;28;20362;-74
2023/03/17 10:34:29;;;;;;;;;;;;;;;;;;5083024;28;19911;-75
2023/03/17 10:36:55;;;;;;;;;;;;;;;;;;5085834;28;19907;-75
2023/03/17 10:39:20;;;;;;;;;;;;;;;;;;5084353;28;19968;-75
2023/03/17 10:41:47;;;;;;;;;;;;;;;;;;5084319;28;19927;-75
2023/03/17 10:44:12;;;;;;;;;;;;;;;;;;5084372;28;19926;-75
2023/03/17 10:46:38;;;;;;;;;;;;;;;;;;5084468;28;19912;-75
2023/03/17 10:49:04;;;;;;;;;;;;;;;;;;5084634;28;19922;-75
2023/03/17 10:51:30;;;;;;;;;;;;;;;;;;5084648;28;20269;-75
2023/03/17 10:53:55;;;;;;;;;;;;;;;;;;5084389;28;19916;-75
2023/03/17 10:56:21;;;;;;;;;;;;;;;;;;5084292;28;19945;-74
2023/03/17 10:58:46;;;;;;;;;;;;;;;;;;5084583;28;20624;-74
2023/03/17 11:01:11;;;;;;;;;;;;;;;;;;5084603;28;19908;-73
2023/03/17 11:03:37;;;;;;;;;;;;;;;;;;5084351;28;20338;-73
2023/03/17 11:06:02;;;;;;;;;;;;;;;;;;5082757;28;20274;-74
2023/03/17 11:08:28;;;;;;;;;;;;;;;;;;5083833;28;20527;-76
2023/03/17 11:10:53;;;;;;;;;;;;;;;;;;5083690;28;20361;-76
2023/03/17 11:13:18;;;;;;;;;;;;;;;;;;5083889;28;19915;-72
2023/03/17 11:15:43;;;;;;;;;;;;;;;;;;5083682;28;19935;-75
2023/03/17 11:18:08;;;;;;;;;;;;;;;;;;5083882;28;20285;-76
2023/03/17 11:20:34;;;;;;;;;;;;;;;;;;5083898;28;19989;-75
2023/03/17 11:23:01;;;;;;;;;;;;;;;;;;5083704;28;19922;-76
2023/03/17 11:25:26;;;;;;;;;;;;;;;;;;5084667;28;19916;-75
2023/03/17 11:27:51;;;;;;;;;;;;;;;;;;5083768;28;20367;-76
2023/03/17 11:30:16;;;;;;;;;;;;;;;;;;5086530;28;19916;-77
2023/03/17 11:32:42;;;;;;;;;;;;;;;;;;5088062;28;19916;-75
2023/03/17 11:35:07;;;;;;;;;;;;;;;;;;5088093;28;19921;-74
2023/03/17 11:37:32;;;;;;;;;;;;;;;;;;5088099;28;20000;-74
2023/03/17 11:39:58;;;;;;;;;;;;;;;;;;5088508;28;19920;-73
2023/03/17 11:42:23;;;;;;;;;;;;;;;;;;5086549;28;19922;-74
2023/03/17 11:44:48;;;;;;;;;;;;;;;;;;5086903;28;19916;-74
2023/03/17 11:47:13;;;;;;;;;;;;;;;;;;5088589;28;19907;-74
2023/03/17 11:49:39;;;;;;;;;;;;;;;;;;5087591;28;20054;-75
2023/03/17 11:52:04;;;;;;;;;;;;;;;;;;5087091;28;19916;-75
2023/03/17 11:54:29;;;;;;;;;;;;;;;;;;5086914;28;19943;-74
2023/03/17 11:56:54;;;;;;;;;;;;;;;;;;5086969;28;19938;-74
2023/03/17 11:59:20;;;;;;;;;;;;;;;;;;5087272;28;19911;-75
2023/03/17 12:01:45;;;;;;;;;;;;;;;;;;5086988;28;19930;-74
2023/03/17 12:04:11;;;;;;;;;;;;;;;;;;5086551;28;20026;-74
2023/03/17 12:06:36;;;;;;;;;;;;;;;;;;5087590;28;19937;-74
2023/03/17 12:09:02;;;;;;;;;;;;;;;;;;5087234;28;20406;-77
2023/03/17 12:11:27;;;;;;;;;;;;;;;;;;5087559;28;19912;-75
2023/03/17 12:13:52;;;;;;;;;;;;;;;;;;5087256;28;19994;-76
2023/03/17 12:16:18;;;;;;;;;;;;;;;;;;5088194;28;20258;-75
2023/03/17 12:18:45;;;;;;;;;;;;;;;;;;5087207;28;20250;-75
2023/03/17 12:21:10;;;;;;;;;;;;;;;;;;5085316;28;19912;-77
2023/03/17 12:23:37;;;;;;;;;;;;;;;;;;5086436;27;20663;-75
2023/03/17 12:26:04;;;;;;;;;;;;;;;;;;5087182;28;19907;-73
2023/03/17 12:28:29;;;;;;;;;;;;;;;;;;5087186;28;19931;-75
2023/03/17 12:30:54;;;;;;;;;;;;;;;;;;5085262;28;20270;-74
2023/03/17 12:33:20;;;;;;;;;;;;;;;;;;5091415;28;19952;-74
2023/03/17 12:35:45;;;;;;;;;;;;;;;;;;5087097;28;19918;-74
2023/03/17 12:38:10;;;;;;;;;;;;;;;;;;5086294;28;20291;-74
2023/03/17 12:40:35;;;;;;;;;;;;;;;;;;5087137;28;20347;-74
2023/03/17 12:43:01;;;;;;;;;;;;;;;;;;5086387;28;19919;-74
2023/03/17 12:45:26;;;;;;;;;;;;;;;;;;5086233;28;20719;-73
2023/03/17 12:47:51;;;;;;;;;;;;;;;;;;5085583;28;19916;-74
2023/03/17 12:50:17;;;;;;;;;;;;;;;;;;5087049;28;19907;-73
2023/03/17 12:52:42;;;;;;;;;;;;;;;;;;5083508;28;19920;-75
2023/03/17 12:55:07;;;;;;;;;;;;;;;;;;5084967;28;19908;-73
2023/03/17 12:57:32;;;;;;;;;;;;;;;;;;5086187;28;20338;-75
2023/03/17 12:59:58;;;;;;;;;;;;;;;;;;5086384;28;20018;-74
2023/03/17 13:02:23;;;;;;;;;;;;;;;;;;5087069;28;19938;-74
2023/03/17 13:04:49;;;;;;;;;;;;;;;;;;5084855;28;19970;-74
2023/03/17 13:07:14;;;;;;;;;;;;;;;;;;5086452;28;19927;-72
2023/03/17 13:09:41;;;;;;;;;;;;;;;;;;5085435;28;19912;-75
2023/03/17 13:12:07;;;;;;;;;;;;;;;;;;5086956;28;19919;-74
2023/03/17 13:14:32;;;;;;;;;;;;;;;;;;5090759;28;20676;-72
2023/03/17 13:16:58;;;;;;;;;;;;;;;;;;5085213;28;19943;-75
2023/03/17 13:19:23;;;;;;;;;;;;;;;;;;5084505;28;19923;-73
2023/03/17 13:21:48;;;;;;;;;;;;;;;;;;5085957;28;20602;-74
2023/03/17 13:24:13;;;;;;;;;;;;;;;;;;5085395;28;19926;-74
2023/03/17 13:26:38;;;;;;;;;;;;;;;;;;5086036;28;20002;-73
2023/03/17 13:29:04;;;;;;;;;;;;;;;;;;5086385;28;20045;-74
2023/03/17 13:31:29;;;;;;;;;;;;;;;;;;5086007;28;19955;-73
2023/03/17 13:33:55;;;;;;;;;;;;;;;;;;5086186;28;19908;-73
2023/03/17 13:36:21;;;;;;;;;;;;;;;;;;5085648;28;19923;-73
2023/03/17 13:38:46;;;;;;;;;;;;;;;;;;5086144;27;19919;-72
2023/03/17 13:41:11;;;;;;;;;;;;;;;;;;5085803;28;19917;-74
2023/03/17 13:43:37;;;;;;;;;;;;;;;;;;5086430;28;19940;-75
2023/03/17 13:46:02;;;;;;;;;;;;;;;;;;5085921;28;19911;-74
2023/03/17 13:48:27;;;;;;;;;;;;;;;;;;5085145;28;19937;-73
2023/03/17 13:50:52;;;;;;;;;;;;;;;;;;5085243;28;19911;-74
2023/03/17 13:53:17;;;;;;;;;;;;;;;;;;5084062;28;19973;-73
2023/03/17 13:55:43;;;;;;;;;;;;;;;;;;5088294;28;20254;-74
2023/03/17 13:58:08;;;;;;;;;;;;;;;;;;5094458;28;19968;-74
2023/03/17 14:00:33;;;;;;;;;;;;;;;;;;5097870;28;19904;-74
2023/03/17 14:02:59;;;;;;;;;;;;;;;;;;5088486;28;19969;-74
2023/03/17 14:05:24;;;;;;;;;;;;;;;;;;5094479;28;19916;-74
2023/03/17 14:07:49;;;;;;;;;;;;;;;;;;5094506;28;20022;-73
2023/03/17 14:10:14;;;;;;;;;;;;;;;;;;5093284;28;19918;-74
2023/03/17 14:12:39;;;;;;;;;;;;;;;;;;5096591;28;19911;-73
2023/03/17 14:15:05;;;;;;;;;;;;;;;;;;5094360;28;20458;-75
2023/03/17 14:17:30;;;;;;;;;;;;;;;;;;5124737;27;20384;-73
2023/03/17 14:19:55;;;;;;;;;;;;;;;;;;5095302;28;19911;-75
2023/03/17 14:22:20;;;;;;;;;;;;;;;;;;5092496;28;19928;-73
2023/03/17 14:24:45;;;;;;;;;;;;;;;;;;5081639;28;19923;-73
2023/03/17 14:27:10;;;;;;;;;;;;;;;;;;5092154;28;19915;-74
2023/03/17 14:29:36;;;;;;;;;;;;;;;;;;5087775;28;19916;-71
2023/03/17 14:32:01;;;;;;;;;;;;;;;;;;5097052;28;20345;-71
2023/03/17 14:34:26;;;;;;;;;;;;;;;;;;5098180;28;19907;-70
2023/03/17 14:36:51;;;;;;;;;;;;;;;;;;5097205;28;19917;-73
2023/03/17 14:39:16;;;;;;;;;;;;;;;;;;5094880;28;19977;-73
2023/03/17 14:41:41;;;;;;;;;;;;;;;;;;5097402;28;19915;-75
2023/03/17 14:44:07;;;;;;;;;;;;;;;;;;5094815;28;19951;-75
2023/03/17 14:46:32;;;;;;;;;;;;;;;;;;5095734;28;19924;-73
2023/03/17 14:48:57;;;;;;;;;;;;;;;;;;5091367;28;19907;-73
2023/03/17 14:51:22;;;;;;;;;;;;;;;;;;5089581;28;19918;-72
2023/03/17 14:53:47;;;;;;;;;;;;;;;;;;5094686;28;20576;-75
2023/03/17 14:56:12;;;;;;;;;;;;;;;;;;5091658;28;19912;-73
2023/03/17 14:58:38;;;;;;;;;;;;;;;;;;5094780;28;19935;-75
2023/03/17 15:01:03;;;;;;;;;;;;;;;;;;5085926;28;20323;-74
2023/03/17 15:03:28;;;;;;;;;;;;;;;;;;5087093;28;19926;-75
2023/03/17 15:05:53;;;;;;;;;;;;;;;;;;5087988;28;19969;-75
2023/03/17 15:08:18;;;;;;;;;;;;;;;;;;5098089;28;20359;-76
2023/03/17 15:10:44;;;;;;;;;;;;;;;;;;5094454;28;19912;-76
2023/03/17 15:13:09;;;;;;;;;;;;;;;;;;5096960;27;19950;-74
2023/03/17 15:15:34;;;;;;;;;;;;;;;;;;5105152;27;19935;-74
2023/03/17 15:18:00;;;;;;;;;;;;;;;;;;5100300;27;20226;-75
2023/03/17 15:20:25;;;;;;;;;;;;;;;;;;5102831;27;19966;-75
2023/03/17 15:22:50;;;;;;;;;;;;;;;;;;5101959;28;19969;-74
2023/03/17 15:25:15;;;;;;;;;;;;;;;;;;5092956;28;20030;-76
2023/03/17 15:27:40;;;;;;;;;;;;;;;;;;5097875;28;19916;-77
2023/03/17 15:30:06;;;;;;;;;;;;;;;;;;5096029;28;20357;-74
2023/03/17 15:32:31;;;;;;;;;;;;;;;;;;5094185;28;19912;-73
2023/03/17 15:34:56;;;;;;;;;;;;;;;;;;5102265;28;20334;-74
2023/03/17 15:37:21;;;;;;;;;;;;;;;;;;5102586;28;19912;-75
2023/03/17 15:39:47;;;;;;;;;;;;;;;;;;5098781;28;20258;-75
2023/03/17 15:42:12;;;;;;;;;;;;;;;;;;5099533;28;19926;-75
2023/03/17 15:44:37;;;;;;;;;;;;;;;;;;5100960;28;20338;-74
2023/03/17 15:47:02;;;;;;;;;;;;;;;;;;5103519;28;19914;-74
2023/03/17 15:49:28;;;;;;;;;;;;;;;;;;5097075;28;19904;-74
2023/03/17 15:51:54;;;;;;;;;;;;;;;;;;5092731;27;20283;-75
2023/03/17 15:54:19;;;;;;;;;;;;;;;;;;5098671;28;19916;-75
2023/03/17 15:56:44;;;;;;;;;;;;;;;;;;5093487;28;19912;-74
2023/03/17 15:59:09;;;;;;;;;;;;;;;;;;5103217;27;20238;-75
2023/03/17 16:01:34;;;;;;;;;;;;;;;;;;5097899;28;19915;-74
2023/03/17 16:04:00;;;;;;;;;;;;;;;;;;5099855;28;19924;-75
2023/03/17 16:06:25;;;;;;;;;;;;;;;;;;5102722;28;19920;-75
2023/03/17 16:08:51;;;;;;;;;;;;;;;;;;5102438;28;19912;-75
2023/03/17 16:11:17;;;;;;;;;;;;;;;;;;5093064;28;20339;-75
2023/03/17 16:13:42;;;;;;;;;;;;;;;;;;5097623;27;19951;-74
2023/03/17 16:16:07;;;;;;;;;;;;;;;;;;5099440;28;19919;-76
2023/03/17 16:18:33;;;;;;;;;;;;;;;;;;5098272;28;20330;-77
2023/03/17 16:20:58;;;;;;;;;;;;;;;;;;5097802;28;20012;-75
2023/03/17 16:23:23;;;;;;;;;;;;;;;;;;5098469;28;19918;-75
2023/03/17 16:25:48;;;;;;;;;;;;;;;;;;5097130;28;20411;-75
2023/03/17 16:28:13;;;;;;;;;;;;;;;;;;5099226;28;19908;-74
2023/03/17 16:30:38;;;;;;;;;;;;;;;;;;5096853;28;20379;-76
2023/03/17 16:33:04;;;;;;;;;;;;;;;;;;5084476;28;19907;-76